Time;durP1;ratioP1;P1;durP2;ratioP2;P2;SDS_P1;SDS_P2;PMS_P1;PMS_P2;Temp;Humidity;BMP_temperature;BMP_pressure;BME280_temperature;BME280_humidity;BME280_pressure;Samples;Min_cycle;Max_cycle;Signal;HPM_P1;HPM_P2
2022/05/14 00:01:04;;;;;;;15.35;4.38;;;11.10;99.90;;;;;;5037537;28;20051;-90
2022/05/14 00:03:31;;;;;;;8.30;3.63;;;11.10;99.90;;;;;;5054747;28;20409;-90
2022/05/14 00:06:03;;;;;;;14.18;3.97;;;11.10;99.90;;;;;;5038011;28;20548;-90
2022/05/14 00:08:30;;;;;;;12.77;3.58;;;11.10;99.90;;;;;;5053946;28;20044;-90
2022/05/14 00:13:40;;;;;;;10.68;3.45;;;11.00;99.90;;;;;;5061270;28;20410;-90
2022/05/14 00:16:07;;;;;;;9.38;3.00;;;11.00;99.90;;;;;;5054266;28;20044;-91
2022/05/14 00:18:34;;;;;;;13.55;3.75;;;11.00;99.90;;;;;;5063066;28;20017;-91
2022/05/14 00:21:00;;;;;;;10.10;3.63;;;11.00;99.90;;;;;;5064461;28;20525;-91
2022/05/14 00:23:27;;;;;;;11.35;3.60;;;11.00;99.90;;;;;;5051596;28;20037;-91
2022/05/14 00:25:52;;;;;;;13.00;3.90;;;11.00;99.90;;;;;;5073993;28;20054;-90
2022/05/14 00:28:18;;;;;;;10.65;3.40;;;11.00;99.90;;;;;;5056651;28;20040;-90
2022/05/14 00:30:44;;;;;;;10.00;3.40;;;11.00;99.90;;;;;;5057091;28;20021;-90
2022/05/14 00:33:11;;;;;;;10.43;3.88;;;11.10;99.90;;;;;;5062281;28;20031;-90
2022/05/14 00:35:37;;;;;;;11.98;4.22;;;11.10;99.90;;;;;;5066904;28;20054;-90
2022/05/14 00:38:03;;;;;;;10.70;3.67;;;11.10;99.90;;;;;;5054128;28;20494;-91
2022/05/14 00:40:33;;;;;;;15.30;3.78;;;11.10;99.90;;;;;;5054181;28;20059;-90
2022/05/14 00:42:59;;;;;;;9.95;3.42;;;11.10;99.90;;;;;;5037557;28;20086;-90
2022/05/14 00:45:27;;;;;;;9.40;3.05;;;11.10;99.90;;;;;;5036832;28;20032;-90
2022/05/14 00:47:56;;;;;;;11.63;3.70;;;11.10;99.90;;;;;;5054091;28;20406;-91
2022/05/14 00:50:39;;;;;;;10.85;4.20;;;11.10;99.90;;;;;;5036189;28;20037;-90
2022/05/14 00:53:08;;;;;;;;;;;11.10;99.90;;;;;;5054019;28;20044;-91
2022/05/14 00:55:36;;;;;;;10.23;2.92;;;11.10;99.90;;;;;;5053119;28;19917;-90
2022/05/14 00:58:02;;;;;;;7.70;2.83;;;11.10;99.90;;;;;;5053979;28;20040;-90
2022/05/14 01:00:29;;;;;;;12.90;3.70;;;11.10;99.90;;;;;;5037227;28;20037;-91
2022/05/14 01:02:55;;;;;;;9.45;3.88;;;11.10;99.90;;;;;;5036855;28;20102;-91
2022/05/14 01:05:21;;;;;;;9.70;3.25;;;11.10;99.90;;;;;;5070591;28;20513;-90
2022/05/14 01:07:49;;;;;;;10.18;3.38;;;11.10;99.90;;;;;;5071046;28;20094;-90
2022/05/14 01:10:17;;;;;;;9.40;3.33;;;11.10;99.90;;;;;;5053426;28;20047;-90
2022/05/14 01:12:58;;;;;;;10.93;3.53;;;11.10;99.90;;;;;;5036196;28;20040;-90
2022/05/14 01:15:37;;;;;;;13.10;3.83;;;11.10;99.90;;;;;;5036731;28;20040;-90
2022/05/14 01:18:02;;;;;;;9.30;2.92;;;11.10;99.90;;;;;;5052805;28;20410;-91
2022/05/14 01:20:28;;;;;;;13.25;3.92;;;11.10;99.90;;;;;;5053650;28;20047;-90
2022/05/14 01:23:04;;;;;;;13.80;3.95;;;11.10;99.90;;;;;;5036998;28;20045;-91
2022/05/14 01:28:48;;;;;;;10.27;3.38;;;11.20;99.90;;;;;;5053138;28;20055;-90
2022/05/14 01:31:13;;;;;;;10.18;2.95;;;11.20;99.90;;;;;;5035504;28;20517;-90
2022/05/14 01:33:39;;;;;;;11.02;3.10;;;11.20;99.90;;;;;;5053025;28;20037;-90
2022/05/14 01:36:09;;;;;;;11.05;3.35;;;11.20;99.90;;;;;;5052714;28;20037;-90
2022/05/14 01:38:35;;;;;;;12.40;3.25;;;11.20;99.90;;;;;;5052949;28;20041;-90
2022/05/14 01:41:01;;;;;;;11.65;3.47;;;11.20;99.90;;;;;;5052687;28;20048;-91
2022/05/14 01:43:27;;;;;;;13.45;3.20;;;11.20;99.90;;;;;;5052806;28;20041;-90
2022/05/14 01:45:53;;;;;;;9.77;3.00;;;11.20;99.90;;;;;;5053312;28;20409;-90
2022/05/14 01:48:18;;;;;;;11.55;3.42;;;11.30;99.90;;;;;;5035843;28;20036;-91
2022/05/14 01:50:44;;;;;;;11.10;3.35;;;11.20;99.90;;;;;;5052397;28;20494;-90
2022/05/14 01:53:10;;;;;;;11.23;3.25;;;11.30;99.90;;;;;;5052203;28;20501;-91
2022/05/14 01:55:36;;;;;;;13.80;3.65;;;11.30;99.90;;;;;;5051757;28;20048;-90
2022/05/14 01:58:36;;;;;;;10.68;3.35;;;11.30;99.90;;;;;;5037412;28;20498;-90
2022/05/14 02:00:48;;;;;;;13.70;3.33;;;11.30;99.90;;;;;;5055701;28;20422;-90
2022/05/14 02:03:14;;;;;;;15.55;3.58;;;11.30;99.90;;;;;;5056738;28;20048;-90
2022/05/14 02:05:40;;;;;;;15.13;4.22;;;11.30;99.90;;;;;;5039285;28;20040;-90
2022/05/14 02:08:05;;;;;;;13.77;4.68;;;11.30;99.90;;;;;;5056625;28;20040;-90
2022/05/14 02:10:31;;;;;;;14.13;3.78;;;11.40;99.90;;;;;;5039681;28;20123;-90
2022/05/14 02:12:57;;;;;;;10.18;3.97;;;11.40;99.90;;;;;;5063120;28;20076;-91
2022/05/14 02:15:23;;;;;;;12.05;3.60;;;11.40;99.90;;;;;;5056584;28;20036;-90
2022/05/14 02:17:49;;;;;;;9.52;3.50;;;11.40;99.90;;;;;;5041405;28;20043;-90
2022/05/14 02:20:16;;;;;;;10.85;3.03;;;11.40;99.90;;;;;;5059560;28;20053;-91
2022/05/14 02:22:42;;;;;;;9.50;3.20;;;11.40;99.90;;;;;;5040015;28;20493;-91
2022/05/14 02:25:08;;;;;;;9.35;3.60;;;11.30;99.90;;;;;;5064716;28;20094;-91
2022/05/14 02:27:34;;;;;;;14.00;4.10;;;11.30;99.90;;;;;;5056850;28;20076;-90
2022/05/14 02:30:00;;;;;;;11.35;3.45;;;11.30;99.90;;;;;;5055680;28;20561;-91
2022/05/14 02:32:27;;;;;;;12.85;3.85;;;11.30;99.90;;;;;;5056047;28;20127;-91
2022/05/14 02:34:53;;;;;;;11.50;3.80;;;11.20;99.90;;;;;;5055887;28;20090;-90
2022/05/14 02:37:24;;;;;;;16.25;4.90;;;11.20;99.90;;;;;;5055813;28;20124;-91
2022/05/14 02:39:50;;;;;;;11.95;3.45;;;11.20;99.90;;;;;;5056937;28;20490;-90
2022/05/14 02:42:16;;;;;;;12.90;4.05;;;11.20;99.90;;;;;;5039174;28;20085;-91
2022/05/14 02:44:42;;;;;;;12.25;4.10;;;11.20;99.90;;;;;;5056817;28;20480;-91
2022/05/14 02:47:08;;;;;;;13.23;3.95;;;11.20;99.90;;;;;;5039552;28;20489;-91
2022/05/14 02:49:34;;;;;;;17.23;4.22;;;11.20;99.90;;;;;;5055559;28;20517;-90
2022/05/14 02:52:00;;;;;;;10.45;3.85;;;11.20;99.90;;;;;;5055746;28;20123;-91
2022/05/14 02:54:25;;;;;;;11.35;4.00;;;11.20;99.90;;;;;;5055040;28;20047;-90
2022/05/14 02:56:51;;;;;;;15.13;4.47;;;11.10;99.90;;;;;;5056221;28;20093;-90
2022/05/14 02:59:18;;;;;;;13.73;4.15;;;11.10;99.90;;;;;;5055719;28;20074;-90
2022/05/14 03:01:49;;;;;;;12.45;3.80;;;11.00;99.90;;;;;;5039189;28;20040;-90
2022/05/14 03:04:17;;;;;;;14.43;4.25;;;11.00;99.90;;;;;;5055692;28;20040;-90
2022/05/14 03:06:43;;;;;;;11.80;4.05;;;10.90;99.90;;;;;;5062209;28;20043;-90
2022/05/14 03:09:09;;;;;;;13.93;4.20;;;10.90;99.90;;;;;;5071767;28;20037;-90
2022/05/14 03:11:35;;;;;;;9.85;3.97;;;10.90;99.90;;;;;;5068185;28;20058;-91
2022/05/14 03:14:00;;;;;;;13.93;3.70;;;10.80;99.90;;;;;;5037934;28;20040;-90
2022/05/14 03:16:26;;;;;;;13.10;3.95;;;10.80;99.90;;;;;;5055061;28;20036;-91
2022/05/14 03:18:51;;;;;;;14.52;3.63;;;10.70;99.90;;;;;;5038206;28;20079;-90
2022/05/14 03:21:17;;;;;;;11.68;4.10;;;10.60;99.90;;;;;;5055100;28;20098;-91
2022/05/14 03:23:42;;;;;;;15.60;4.43;;;10.60;99.90;;;;;;5055241;28;20048;-90
2022/05/14 03:26:08;;;;;;;13.98;4.13;;;10.50;99.90;;;;;;5038360;28;20036;-91
2022/05/14 03:28:33;;;;;;;13.82;3.80;;;10.50;99.90;;;;;;5054919;28;20050;-90
2022/05/14 03:30:59;;;;;;;12.13;4.18;;;10.40;99.90;;;;;;5053501;28;20036;-90
2022/05/14 03:33:25;;;;;;;12.68;4.05;;;10.30;99.90;;;;;;5054647;28;20048;-90
2022/05/14 03:35:50;;;;;;;14.05;4.70;;;10.30;99.90;;;;;;5054176;28;20041;-91
2022/05/14 03:38:16;;;;;;;16.33;4.32;;;10.20;99.90;;;;;;5055201;28;20043;-91
2022/05/14 03:40:42;;;;;;;12.18;4.05;;;10.20;99.90;;;;;;5038706;28;20075;-90
2022/05/14 03:43:07;;;;;;;11.52;4.30;;;10.20;99.90;;;;;;5054903;28;20036;-90
2022/05/14 03:45:33;;;;;;;13.50;5.85;;;10.20;99.90;;;;;;5055632;28;20068;-91
2022/05/14 03:47:58;;;;;;;13.93;3.85;;;10.20;99.90;;;;;;5054372;28;20486;-90
2022/05/14 03:50:24;;;;;;;15.20;4.90;;;10.10;99.90;;;;;;5037459;28;20044;-91
2022/05/14 03:52:50;;;;;;;11.63;4.57;;;10.10;99.90;;;;;;5054892;28;20045;-91
2022/05/14 03:55:15;;;;;;;11.57;4.78;;;10.00;99.90;;;;;;5054035;28;20040;-91
2022/05/14 03:57:41;;;;;;;13.10;3.72;;;10.10;99.90;;;;;;5054994;28;20131;-90
2022/05/14 04:00:08;;;;;;;13.45;4.20;;;10.00;99.90;;;;;;5054240;28;20086;-90
2022/05/14 04:02:34;;;;;;;12.43;4.05;;;10.00;99.90;;;;;;5084173;28;20501;-90
2022/05/14 04:05:00;;;;;;;12.15;4.43;;;10.00;99.90;;;;;;5071432;28;20128;-91
2022/05/14 04:07:25;;;;;;;13.75;4.43;;;10.00;99.90;;;;;;5054293;28;20115;-91
2022/05/14 04:09:51;;;;;;;13.18;4.65;;;10.00;99.90;;;;;;5054509;28;20040;-91
2022/05/14 04:12:17;;;;;;;14.05;4.00;;;10.00;99.90;;;;;;5037027;28;20040;-91
2022/05/14 04:14:44;;;;;;;12.98;4.30;;;10.00;99.90;;;;;;5054019;28;20040;-90
2022/05/14 04:17:09;;;;;;;11.75;4.13;;;10.00;99.90;;;;;;5037179;28;20116;-90
2022/05/14 04:19:35;;;;;;;13.98;4.10;;;10.10;99.90;;;;;;5054591;28;20456;-90
2022/05/14 04:22:00;;;;;;;12.05;4.05;;;10.00;99.90;;;;;;5071608;28;20051;-91
2022/05/14 04:24:27;;;;;;;11.48;4.28;;;10.00;99.90;;;;;;5054597;28;20043;-90
2022/05/14 04:26:53;;;;;;;10.63;4.55;;;10.00;99.90;;;;;;5037297;28;20062;-91
2022/05/14 04:29:19;;;;;;;11.85;4.30;;;10.00;99.90;;;;;;5053490;28;20036;-91
2022/05/14 04:31:45;;;;;;;11.95;4.32;;;10.00;99.90;;;;;;5053345;28;20040;-91
2022/05/14 04:34:11;;;;;;;15.65;5.20;;;9.90;99.90;;;;;;5053747;28;20040;-91
2022/05/14 04:36:37;;;;;;;10.50;4.93;;;9.90;99.90;;;;;;5052927;28;20078;-90
2022/05/14 04:39:03;;;;;;;15.68;4.70;;;9.90;99.90;;;;;;5054243;28;20121;-91
2022/05/14 04:41:30;;;;;;;12.00;4.85;;;10.00;99.90;;;;;;5036931;28;20036;-90
2022/05/14 04:43:59;;;;;;;17.10;4.88;;;10.00;99.90;;;;;;5053823;28;20036;-90
2022/05/14 04:46:26;;;;;;;15.52;5.53;;;10.00;99.90;;;;;;5054197;28;20032;-90
2022/05/14 04:48:51;;;;;;;13.82;4.95;;;10.00;99.90;;;;;;5053755;28;20048;-90
2022/05/14 04:51:17;;;;;;;12.63;4.47;;;10.00;99.90;;;;;;5071470;28;20240;-90
2022/05/14 04:53:43;;;;;;;13.88;4.25;;;10.10;99.90;;;;;;5053192;28;20048;-91
2022/05/14 04:56:08;;;;;;;13.50;5.05;;;10.20;99.90;;;;;;5036390;28;20040;-90
2022/05/14 04:58:34;;;;;;;14.05;5.57;;;10.20;99.90;;;;;;5053531;28;20040;-91
2022/05/14 05:00:59;;;;;;;17.30;5.35;;;10.20;99.90;;;;;;5036960;28;20047;-90
2022/05/14 05:03:27;;;;;;;12.80;5.32;;;10.30;99.90;;;;;;5053805;28;20040;-91
2022/05/14 05:05:56;;;;;;;17.08;6.00;;;10.30;99.90;;;;;;5053185;28;20036;-90
2022/05/14 05:08:24;;;;;;;12.60;5.00;;;10.40;99.90;;;;;;5056587;28;20093;-90
2022/05/14 05:10:50;;;;;;;14.10;4.80;;;10.40;99.90;;;;;;5033502;28;20040;-89
2022/05/14 05:13:25;;;;;;;13.02;5.55;;;10.50;99.90;;;;;;5051430;28;20033;-89
2022/05/14 05:15:51;;;;;;;15.00;5.45;;;10.60;99.90;;;;;;5051943;28;20449;-89
2022/05/14 05:18:19;;;;;;;15.55;5.43;;;10.60;99.90;;;;;;5051482;28;20414;-89
2022/05/14 05:20:48;;;;;;;15.52;5.53;;;10.70;99.90;;;;;;5052169;28;20044;-89
2022/05/14 05:23:16;;;;;;;16.60;5.40;;;10.80;99.90;;;;;;5051844;28;20665;-89
2022/05/14 05:25:42;;;;;;;15.50;6.28;;;10.80;99.90;;;;;;5035313;28;20182;-89
2022/05/14 05:28:08;;;;;;;18.70;5.97;;;10.90;99.90;;;;;;5052533;28;20036;-89
2022/05/14 05:30:34;;;;;;;18.90;6.53;;;10.90;99.90;;;;;;5051404;28;20033;-89
2022/05/14 05:32:59;;;;;;;17.55;6.22;;;11.00;99.90;;;;;;5036598;28;20037;-90
2022/05/14 05:35:25;;;;;;;16.70;8.27;;;11.00;99.90;;;;;;5055594;28;20189;-89
2022/05/14 05:37:51;;;;;;;20.42;5.63;;;11.20;99.90;;;;;;5056362;28;20072;-89
2022/05/14 05:40:17;;;;;;;15.23;5.60;;;11.30;99.90;;;;;;5039792;28;20390;-89
2022/05/14 05:42:44;;;;;;;16.35;6.18;;;11.30;99.90;;;;;;5038826;28;20676;-89
2022/05/14 05:45:12;;;;;;;17.20;6.75;;;11.30;99.90;;;;;;5056109;28;20032;-89
2022/05/14 05:47:38;;;;;;;15.55;7.20;;;11.40;99.90;;;;;;5056225;28;20086;-89
2022/05/14 05:50:04;;;;;;;21.38;7.32;;;11.50;99.90;;;;;;5038876;28;20040;-89
2022/05/14 05:52:32;;;;;;;17.40;6.88;;;11.50;99.90;;;;;;5056638;28;20048;-89
2022/05/14 05:57:43;;;;;;;18.45;7.82;;;11.70;99.90;;;;;;5056427;28;20052;-89
2022/05/14 06:00:12;;;;;;;22.35;7.18;;;11.70;99.90;;;;;;5039249;28;20036;-89
2022/05/14 06:02:38;;;;;;;20.40;8.35;;;11.80;99.90;;;;;;5056540;28;20079;-89
2022/05/14 06:05:05;;;;;;;20.08;7.70;;;11.90;99.90;;;;;;5056606;28;20068;-89
2022/05/14 06:07:32;;;;;;;23.08;8.88;;;12.00;99.90;;;;;;5038667;28;20044;-89
2022/05/14 06:09:57;;;;;;;19.33;7.82;;;12.10;99.90;;;;;;5039396;28;20075;-90
2022/05/14 06:12:23;;;;;;;22.65;7.82;;;12.20;99.90;;;;;;5054961;28;20140;-90
2022/05/14 06:14:49;;;;;;;21.08;8.52;;;12.20;99.90;;;;;;5055560;28;20040;-90
2022/05/14 06:17:15;;;;;;;22.20;7.88;;;12.30;99.90;;;;;;5055976;28;20036;-90
2022/05/14 06:19:42;;;;;;;18.92;7.75;;;12.50;99.90;;;;;;5055470;28;20036;-90
2022/05/14 06:22:07;;;;;;;20.05;7.55;;;12.50;99.90;;;;;;5056304;28;20103;-90
2022/05/14 06:24:35;;;;;;;19.95;8.10;;;12.60;99.90;;;;;;5039512;28;20064;-90
2022/05/14 06:27:00;;;;;;;17.00;7.40;;;12.60;99.90;;;;;;5056209;28;20041;-90
2022/05/14 06:29:26;;;;;;;20.95;8.15;;;12.60;99.90;;;;;;5056452;28;20551;-91
2022/05/14 06:31:52;;;;;;;21.17;8.07;;;12.70;99.90;;;;;;5038689;28;20547;-91
2022/05/14 06:34:17;;;;;;;17.38;8.30;;;12.80;99.90;;;;;;5039604;28;20052;-91
2022/05/14 06:36:43;;;;;;;21.83;8.70;;;12.80;99.90;;;;;;5055006;28;20440;-90
2022/05/14 06:39:08;;;;;;;22.02;8.60;;;12.90;99.90;;;;;;5039149;28;20040;-91
2022/05/14 06:41:34;;;;;;;22.88;7.93;;;12.90;99.90;;;;;;5055767;28;20048;-91
2022/05/14 06:44:00;;;;;;;20.02;8.00;;;13.00;99.90;;;;;;5055064;28;20045;-91
2022/05/14 06:46:25;;;;;;;20.20;8.27;;;13.00;99.90;;;;;;5055855;28;20119;-90
2022/05/14 06:48:51;;;;;;;17.60;7.75;;;13.10;99.90;;;;;;5055044;28;20067;-91
2022/05/14 06:51:25;;;;;;;23.85;11.48;;;13.10;99.90;;;;;;5038044;28;20403;-90
2022/05/14 06:53:53;;;;;;;21.63;8.88;;;13.20;99.90;;;;;;5055659;28;20043;-91
2022/05/14 06:56:20;;;;;;;19.83;8.40;;;13.10;99.90;;;;;;5055078;28;20409;-90
2022/05/14 06:58:48;;;;;;;18.90;7.82;;;13.20;99.90;;;;;;5055268;28;20040;-90
2022/05/14 07:01:16;;;;;;;23.38;8.10;;;13.30;99.90;;;;;;5055628;28;20398;-90
2022/05/14 07:06:38;;;;;;;21.38;8.55;;;13.50;99.90;;;;;;5055971;28;20040;-90
2022/05/14 07:09:17;;;;;;;25.65;10.77;;;13.50;99.90;;;;;;5038482;28;20086;-90
2022/05/14 07:11:44;;;;;;;22.42;8.23;;;13.70;99.90;;;;;;5054832;28;20055;-91
2022/05/14 07:14:12;;;;;;;30.90;11.10;;;13.80;99.90;;;;;;5038654;28;20712;-90
2022/05/14 07:16:38;;;;;;;23.77;9.30;;;13.90;99.90;;;;;;5054972;28;20041;-90
2022/05/14 07:19:06;;;;;;;22.40;8.35;;;14.00;99.90;;;;;;5037998;28;20063;-91
2022/05/14 07:21:37;;;;;;;25.58;10.98;;;14.10;99.90;;;;;;5055450;28;20286;-90
2022/05/14 07:24:07;;;;;;;20.92;8.65;;;14.20;99.90;;;;;;5055697;28;20045;-90
2022/05/14 07:26:37;;;;;;;23.38;8.40;;;14.30;99.90;;;;;;5038084;28;20040;-91
2022/05/14 07:29:09;;;;;;;22.95;10.10;;;14.30;99.90;;;;;;5038500;28;20169;-90
2022/05/14 07:31:35;;;;;;;19.10;7.17;;;14.50;99.90;;;;;;5053935;28;20040;-90
2022/05/14 07:34:02;;;;;;;23.48;9.38;;;14.60;99.90;;;;;;5054532;28;20067;-91
2022/05/14 07:36:29;;;;;;;21.25;8.27;;;14.70;99.90;;;;;;5037947;28;20043;-90
2022/05/14 07:38:59;;;;;;;22.45;8.20;;;14.80;99.90;;;;;;5037061;28;20044;-91
2022/05/14 07:41:25;;;;;;;25.98;7.88;;;14.80;99.90;;;;;;5054495;28;20047;-90
2022/05/14 07:43:53;;;;;;;22.02;6.95;;;14.90;99.90;;;;;;5038108;28;20375;-90
2022/05/14 07:46:26;;;;;;;18.88;6.38;;;15.10;99.90;;;;;;5054688;28;20051;-90
2022/05/14 07:48:53;;;;;;;21.75;7.47;;;15.10;99.90;;;;;;5054784;28;20051;-91
2022/05/14 07:51:19;;;;;;;19.35;7.13;;;15.20;99.90;;;;;;5053795;28;20043;-90
2022/05/14 07:53:46;;;;;;;22.80;8.43;;;15.30;99.90;;;;;;5054182;28;20075;-92
2022/05/14 07:56:12;;;;;;;19.75;7.78;;;15.40;99.90;;;;;;5053892;28;20040;-91
2022/05/14 07:58:38;;;;;;;25.08;7.97;;;15.60;99.90;;;;;;5036761;28;20041;-90
2022/05/14 08:01:04;;;;;;;20.55;7.57;;;15.60;99.90;;;;;;5054362;28;20406;-91
2022/05/14 08:03:30;;;;;;;24.13;8.95;;;15.70;99.90;;;;;;5054273;28;20040;-91
2022/05/14 08:05:56;;;;;;;18.80;6.05;;;15.80;99.90;;;;;;5055033;28;20125;-91
2022/05/14 08:08:23;;;;;;;23.33;8.13;;;15.90;99.90;;;;;;5054427;28;20055;-91
2022/05/14 08:10:49;;;;;;;22.17;6.38;;;15.90;99.90;;;;;;5053297;28;20529;-91
2022/05/14 08:13:19;;;;;;;24.08;8.07;;;16.00;99.90;;;;;;5039907;28;20043;-91
2022/05/14 08:15:46;;;;;;;24.40;7.13;;;16.10;99.90;;;;;;5071827;28;20095;-91
2022/05/14 08:18:13;;;;;;;23.33;7.25;;;16.10;99.90;;;;;;5039683;28;20036;-91
2022/05/14 08:20:42;;;;;;;22.50;7.63;;;16.30;99.90;;;;;;5054902;28;20032;-90
2022/05/14 08:25:56;;;;;;;22.40;7.57;;;16.50;99.90;;;;;;5056163;28;20486;-91
2022/05/14 08:28:21;;;;;;;20.40;6.82;;;16.50;99.90;;;;;;5067885;28;20037;-91
2022/05/14 08:30:47;;;;;;;22.50;7.22;;;16.60;99.90;;;;;;5060654;28;20033;-90
2022/05/14 08:33:13;;;;;;;23.08;7.18;;;16.70;99.90;;;;;;5051714;28;20064;-91
2022/05/14 08:35:39;;;;;;;22.33;7.15;;;16.90;99.90;;;;;;5053955;28;20036;-91
2022/05/14 08:38:06;;;;;;;21.13;6.13;;;17.00;99.90;;;;;;5053505;28;20048;-91
2022/05/14 08:40:40;;;;;;;20.30;6.55;;;17.00;99.90;;;;;;5053766;28;20048;-91
2022/05/14 08:43:16;;;;;;;21.80;7.22;;;17.10;99.90;;;;;;5053564;28;20059;-91
2022/05/14 08:45:44;;;;;;;22.58;7.22;;;17.10;99.90;;;;;;5038064;28;20056;-91
2022/05/14 08:48:26;;;;;;;24.60;7.38;;;17.20;99.90;;;;;;5052778;28;20041;-91
2022/05/14 08:51:24;;;;;;;22.83;6.07;;;17.20;99.90;;;;;;5053371;28;20533;-91
2022/05/14 08:53:50;;;;;;;21.02;6.82;;;17.40;99.90;;;;;;5024358;28;20044;-90
2022/05/14 08:56:22;;;;;;;21.15;7.18;;;17.50;99.90;;;;;;5054339;28;20037;-91
2022/05/14 08:59:06;;;;;;;19.95;5.60;;;17.60;99.90;;;;;;5024966;28;20493;-91
2022/05/14 09:01:37;;;;;;;22.80;6.72;;;17.70;99.90;;;;;;5037586;28;20080;-91
2022/05/14 09:04:04;;;;;;;21.17;6.28;;;17.70;99.90;;;;;;5053764;28;20050;-91
2022/05/14 09:06:30;;;;;;;20.42;5.82;;;17.70;99.60;;;;;;5052756;28;20058;-91
2022/05/14 09:08:55;;;;;;;24.65;7.53;;;17.80;99.40;;;;;;5053435;28;20108;-91
2022/05/14 09:11:25;;;;;;;21.02;6.97;;;17.80;98.70;;;;;;5052916;28;20520;-91
2022/05/14 09:13:54;;;;;;;18.25;5.68;;;17.90;98.50;;;;;;5050053;28;20120;-91
2022/05/14 09:16:28;;;;;;;22.83;6.82;;;18.00;98.70;;;;;;5053009;28;20094;-91
2022/05/14 09:18:54;;;;;;;21.67;5.93;;;18.10;96.70;;;;;;5036216;28;20059;-92
2022/05/14 09:21:25;;;;;;;21.27;5.97;;;18.00;94.10;;;;;;5036172;28;20040;-91
2022/05/14 09:24:03;;;;;;;14.93;5.53;;;18.10;96.00;;;;;;5052702;28;20115;-92
2022/05/14 09:26:38;;;;;;;23.08;6.55;;;18.10;96.50;;;;;;5062926;28;20054;-92
2022/05/14 09:29:28;;;;;;;19.38;6.20;;;18.30;97.00;;;;;;5052906;28;20041;-92
2022/05/14 09:32:03;;;;;;;19.25;5.43;;;18.40;95.60;;;;;;5042336;28;20044;-91
2022/05/14 09:34:31;;;;;;;18.80;5.90;;;18.30;95.30;;;;;;5035416;28;20502;-91
2022/05/14 09:37:05;;;;;;;20.00;6.03;;;18.30;95.60;;;;;;5052468;28;20088;-91
2022/05/14 09:39:31;;;;;;;22.17;6.40;;;18.40;96.10;;;;;;5034863;28;20663;-91
2022/05/14 09:42:00;;;;;;;23.35;5.97;;;18.40;96.30;;;;;;5035113;28;20082;-92
2022/05/14 09:44:49;;;;;;;18.38;5.97;;;18.60;96.20;;;;;;5051462;28;20082;-91
2022/05/14 09:47:25;;;;;;;16.48;5.65;;;18.70;96.60;;;;;;4950061;28;20531;-91
2022/05/14 09:50:02;;;;;;;19.30;6.00;;;18.70;94.50;;;;;;4950036;28;20082;-92
2022/05/14 09:52:33;;;;;;;19.13;5.60;;;18.90;96.10;;;;;;4949851;28;20066;-91
2022/05/14 09:55:03;;;;;;;19.02;5.60;;;18.90;93.60;;;;;;4967845;28;20074;-92
2022/05/14 09:57:39;;;;;;;16.02;5.40;;;18.90;90.30;;;;;;4947605;28;20100;-92
2022/05/14 10:00:14;;;;;;;19.17;5.65;;;19.00;92.90;;;;;;4944174;28;20047;-91
2022/05/14 10:03:20;;;;;;;39.00;7.65;;;19.10;90.60;;;;;;4947074;28;20039;-91
2022/05/14 10:06:10;;;;;;;19.88;6.30;;;19.10;94.30;;;;;;4945133;28;20058;-91
2022/05/14 10:09:25;;;;;;;20.13;6.38;;;19.10;91.30;;;;;;4946711;28;20043;-91
2022/05/14 10:12:15;;;;;;;16.40;5.55;;;19.00;87.50;;;;;;4912104;29;20056;-92
2022/05/14 10:14:52;;;;;;;18.67;6.15;;;18.90;90.80;;;;;;4913481;29;20084;-91
2022/05/14 10:17:33;;;;;;;19.33;5.50;;;18.90;92.30;;;;;;4950269;28;20630;-92
2022/05/14 10:20:22;;;;;;;20.38;5.55;;;18.80;92.70;;;;;;4946684;28;20046;-92
2022/05/14 10:29:17;;;;;;;20.23;6.32;;;19.00;93.80;;;;;;5069970;28;20048;-91
2022/05/14 10:32:04;;;;;;;19.92;5.70;;;19.30;94.10;;;;;;5029835;28;20036;-92
2022/05/14 10:35:07;;;;;;;18.58;5.38;;;19.50;95.20;;;;;;5070773;28;20508;-91
2022/05/14 10:37:41;;;;;;;18.25;5.82;;;19.70;91.10;;;;;;5032107;28;20049;-91
2022/05/14 10:40:31;;;;;;;21.40;5.68;;;19.70;85.80;;;;;;5043790;28;20517;-92
2022/05/14 10:43:08;;;;;;;16.83;5.13;;;19.80;84.00;;;;;;5032527;28;20043;-91
2022/05/14 10:45:42;;;;;;;19.70;6.07;;;19.70;78.00;;;;;;5068326;28;20064;-91
2022/05/14 10:48:35;;;;;;;20.48;5.50;;;19.60;78.00;;;;;;5047572;28;20409;-91
2022/05/14 10:51:02;;;;;;;19.45;5.63;;;19.50;79.90;;;;;;5055635;28;20040;-92
2022/05/14 10:53:28;;;;;;;19.70;5.40;;;19.40;90.40;;;;;;5057249;28;20761;-92
2022/05/14 10:56:09;;;;;;;17.33;5.60;;;19.40;90.50;;;;;;5044487;28;20091;-92
2022/05/14 10:58:52;;;;;;;18.92;5.60;;;19.30;84.80;;;;;;5040467;28;20097;-91
2022/05/14 11:01:32;;;;;;;20.00;6.10;;;19.40;90.00;;;;;;5060468;28;20044;-91
2022/05/14 11:04:22;;;;;;;19.77;5.85;;;19.50;88.80;;;;;;5041445;28;20067;-91
2022/05/14 11:07:02;;;;;;;18.50;5.47;;;19.70;94.30;;;;;;5039318;28;20036;-91
2022/05/14 11:09:30;;;;;;;20.55;5.85;;;19.90;92.90;;;;;;5038683;28;20033;-91
2022/05/14 11:11:59;;;;;;;18.52;6.00;;;20.10;90.70;;;;;;5054019;28;20082;-91
2022/05/14 11:14:44;;;;;;;19.65;5.63;;;20.20;84.50;;;;;;5055416;28;20410;-91
2022/05/14 11:17:33;;;;;;;20.13;5.80;;;20.30;78.20;;;;;;5054960;28;20047;-91
2022/05/14 11:20:02;;;;;;;17.10;5.85;;;20.40;77.20;;;;;;5034842;28;20048;-92
2022/05/14 11:22:33;;;;;;;17.77;6.07;;;20.30;78.20;;;;;;5039299;28;20498;-92
2022/05/14 11:25:31;;;;;;;17.42;5.30;;;20.50;86.60;;;;;;5055103;28;20072;-92
2022/05/14 11:28:06;;;;;;;19.75;5.63;;;20.70;85.40;;;;;;5054282;28;20055;-92
2022/05/14 11:30:48;;;;;;;18.83;4.53;;;21.00;79.60;;;;;;5036054;28;20071;-91
2022/05/14 11:33:30;;;;;;;14.35;4.32;;;21.20;73.60;;;;;;5038126;28;20051;-91
2022/05/14 11:35:59;;;;;;;19.90;4.95;;;21.30;69.00;;;;;;5037417;28;20048;-91
2022/05/14 11:38:24;;;;;;;15.73;4.70;;;21.30;70.90;;;;;;5037923;28;20383;-91
2022/05/14 11:41:05;;;;;;;16.95;4.90;;;21.20;65.20;;;;;;5053711;28;20502;-92
2022/05/14 11:43:37;;;;;;;18.63;5.18;;;21.00;66.80;;;;;;5054542;28;20045;-92
2022/05/14 11:46:10;;;;;;;16.35;5.28;;;20.90;67.30;;;;;;5038448;28;20044;-91
2022/05/14 11:48:54;;;;;;;19.65;5.10;;;20.80;70.00;;;;;;5037413;28;20037;-91
2022/05/14 11:51:41;;;;;;;17.98;5.65;;;21.10;71.60;;;;;;5037942;28;20036;-91
2022/05/14 11:54:12;;;;;;;15.88;4.95;;;21.30;71.20;;;;;;5037453;28;20069;-91
2022/05/14 11:56:53;;;;;;;19.33;5.15;;;21.40;68.00;;;;;;5036535;28;20068;-91
2022/05/14 11:59:29;;;;;;;16.88;5.10;;;21.40;67.10;;;;;;5054459;28;20454;-92
2022/05/14 12:01:59;;;;;;;19.50;5.18;;;21.50;68.40;;;;;;5070789;28;20162;-92
2022/05/14 12:04:36;;;;;;;18.38;6.13;;;21.50;69.90;;;;;;5054849;28;20126;-91
2022/05/14 12:07:31;;;;;;;19.20;6.10;;;21.60;71.40;;;;;;5053552;28;20394;-92
2022/05/14 12:10:25;;;;;;;18.70;5.35;;;21.70;70.60;;;;;;5053880;28;20097;-92
2022/05/14 12:13:10;;;;;;;18.08;5.68;;;21.80;70.30;;;;;;5036101;28;20391;-92
2022/05/14 12:15:49;;;;;;;16.25;4.70;;;21.80;68.40;;;;;;5054282;28;20405;-92
2022/05/14 12:18:15;;;;;;;17.65;6.50;;;21.90;68.40;;;;;;5070399;28;20032;-92
2022/05/14 12:20:43;;;;;;;17.55;5.18;;;22.00;67.90;;;;;;5053667;28;20044;-92
2022/05/14 12:23:14;;;;;;;17.23;5.80;;;22.20;66.80;;;;;;5054006;28;20120;-92
2022/05/14 12:25:51;;;;;;;17.00;4.72;;;22.50;67.80;;;;;;5053557;28;20045;-92
2022/05/14 12:28:27;;;;;;;16.85;5.03;;;22.80;66.40;;;;;;5036572;28;20110;-91
2022/05/14 12:33:40;;;;;;;17.60;4.97;;;23.20;62.30;;;;;;5052743;28;20048;-92
2022/05/14 12:36:09;;;;;;;18.85;5.43;;;23.10;62.10;;;;;;5053379;28;20110;-92
2022/05/14 12:38:39;;;;;;;14.68;4.72;;;23.10;62.40;;;;;;5052413;28;20090;-92
2022/05/14 12:41:07;;;;;;;17.63;5.22;;;23.20;61.50;;;;;;5053055;28;20048;-92
2022/05/14 12:43:33;;;;;;;16.63;5.53;;;23.30;60.20;;;;;;5053109;28;20413;-92
2022/05/14 12:46:08;;;;;;;19.75;5.88;;;23.30;58.90;;;;;;5052515;28;20111;-92
2022/05/14 12:49:05;;;;;;;15.38;4.97;;;23.20;57.70;;;;;;5036467;28;20036;-92
2022/05/14 12:51:30;;;;;;;17.00;5.03;;;23.10;59.70;;;;;;4936685;28;20043;-91
2022/05/14 12:53:56;;;;;;;17.95;5.63;;;22.80;60.50;;;;;;4969256;28;20519;-92
2022/05/14 12:56:26;;;;;;;18.05;5.10;;;22.80;60.70;;;;;;4937270;28;20093;-91
2022/05/14 12:58:51;;;;;;;17.80;5.25;;;22.50;60.40;;;;;;4953008;28;20042;-92
2022/05/14 13:01:20;;;;;;;28.38;5.10;;;22.30;58.60;;;;;;4952816;28;20050;-92
2022/05/14 13:03:55;;;;;;;15.32;4.82;;;22.20;60.00;;;;;;4937875;28;20073;-91
2022/05/14 13:06:31;;;;;;;15.85;5.47;;;22.40;62.50;;;;;;4969653;28;20118;-92
2022/05/14 13:08:59;;;;;;;17.25;5.22;;;22.70;61.90;;;;;;4953783;28;20125;-92
2022/05/14 13:11:28;;;;;;;20.80;4.88;;;22.90;61.70;;;;;;4952606;28;20039;-92
2022/05/14 13:14:12;;;;;;;18.23;5.10;;;23.10;58.90;;;;;;4953269;28;20047;-92
2022/05/14 13:16:38;;;;;;;20.23;5.00;;;23.00;56.20;;;;;;4937202;28;20077;-92